Time;durP1;ratioP1;P1;durP2;ratioP2;P2;SDS_P1;SDS_P2;PMS_P1;PMS_P2;Temp;Humidity;BMP_temperature;BMP_pressure;BME280_temperature;BME280_humidity;BME280_pressure;Samples;Min_cycle;Max_cycle;Signal;HPM_P1;HPM_P2
2023/08/26 00:00:20;;;;;;;2.97;0.85;;;;;;;25.60;47.23;100901.44;5065386;28;20391;-82
2023/08/26 00:02:45;;;;;;;2.60;0.80;;;;;;;25.62;47.14;100905.50;5064889;28;20381;-83
2023/08/26 00:05:11;;;;;;;2.63;0.87;;;;;;;25.63;47.37;100900.91;5064423;28;20412;-82
2023/08/26 00:07:36;;;;;;;2.33;0.70;;;;;;;25.56;47.57;100906.59;5048666;28;20381;-84
2023/08/26 00:10:02;;;;;;;2.87;0.87;;;;;;;25.27;48.65;100907.00;5068583;28;20459;-83
2023/08/26 00:12:28;;;;;;;2.10;0.70;;;;;;;25.20;48.87;100903.69;5067227;28;20384;-83
2023/08/26 00:14:53;;;;;;;2.97;0.80;;;;;;;25.21;48.78;100904.50;5066440;28;20373;-83
2023/08/26 00:17:19;;;;;;;2.37;0.70;;;;;;;25.07;49.32;100920.44;5066605;28;20377;-84
2023/08/26 00:19:44;;;;;;;2.90;0.77;;;;;;;25.08;49.34;100916.63;5066922;28;20404;-84
2023/08/26 00:22:10;;;;;;;2.97;0.80;;;;;;;25.09;49.30;100921.78;5067571;28;20376;-83
2023/08/26 00:24:36;;;;;;;3.30;0.88;;;;;;;25.11;49.02;100907.97;5069878;28;20389;-83
2023/08/26 00:27:02;;;;;;;3.07;0.73;;;;;;;25.22;48.71;100917.78;5067327;28;20376;-83
2023/08/26 00:29:28;;;;;;;3.33;0.80;;;;;;;25.19;48.54;100902.03;5067112;28;20380;-83
2023/08/26 00:31:53;;;;;;;3.40;0.93;;;;;;;25.12;48.91;100906.88;5050813;28;20383;-84
2023/08/26 00:34:19;;;;;;;3.00;0.80;;;;;;;25.12;48.99;100912.31;5073029;28;20683;-83
2023/08/26 00:36:44;;;;;;;3.42;0.90;;;;;;;25.13;48.89;100913.94;5073099;28;20372;-82
2023/08/26 00:39:10;;;;;;;3.67;1.03;;;;;;;25.04;49.23;100912.81;5074242;28;20392;-82
2023/08/26 00:41:35;;;;;;;3.53;0.80;;;;;;;24.84;50.07;100917.00;5073832;28;20380;-83
2023/08/26 00:44:00;;;;;;;3.20;0.80;;;;;;;24.84;49.75;100911.59;5057157;28;20391;-83
2023/08/26 00:46:29;;;;;;;3.95;1.05;;;;;;;24.96;49.47;100912.22;5076056;28;20424;-83
2023/08/26 00:48:55;;;;;;;2.72;0.75;;;;;;;25.06;49.32;100919.59;5059095;28;20578;-83
2023/08/26 00:51:21;;;;;;;3.33;1.03;;;;;;;25.04;49.16;100910.09;5079127;28;20439;-83
2023/08/26 00:53:48;;;;;;;3.65;0.93;;;;;;;25.06;48.95;100907.94;5062924;28;20460;-83
2023/08/26 00:56:14;;;;;;;2.75;0.68;;;;;;;25.06;49.02;100908.75;5080152;28;20381;-82
2023/08/26 00:58:40;;;;;;;3.05;0.75;;;;;;;24.99;49.38;100903.56;5062770;28;20411;-83
2023/08/26 01:01:05;;;;;;;3.53;0.95;;;;;;;24.93;49.33;100901.09;5079169;28;20368;-83
2023/08/26 01:03:31;;;;;;;3.15;1.00;;;;;;;24.96;49.22;100903.28;5056253;28;20997;-83
2023/08/26 01:05:57;;;;;;;3.00;1.00;;;;;;;24.93;49.42;100898.38;5047825;28;20416;-83
2023/08/26 01:08:23;;;;;;;2.92;0.85;;;;;;;24.99;49.41;100909.00;5058391;28;20887;-83
2023/08/26 01:11:00;;;;;;;3.20;0.90;;;;;;;24.93;49.47;100896.47;5048400;28;20547;-83
2023/08/26 01:13:40;;;;;;;3.13;0.93;;;;;;;24.85;49.86;100891.56;5043879;28;20400;-83
2023/08/26 01:16:07;;;;;;;3.00;0.70;;;;;;;24.84;49.87;100891.81;5050096;28;20400;-84
2023/08/26 01:18:33;;;;;;;3.53;0.85;;;;;;;24.89;49.84;100897.28;5054230;28;20880;-84
2023/08/26 01:20:59;;;;;;;3.05;0.73;;;;;;;24.90;49.58;100885.31;5038220;28;20387;-82
2023/08/26 01:23:44;;;;;;;3.88;0.90;;;;;;;24.89;49.60;100881.81;5045409;28;20400;-83
2023/08/26 01:26:10;;;;;;;3.25;1.08;;;;;;;24.91;49.65;100889.69;5046761;28;20408;-82
2023/08/26 01:28:35;;;;;;;2.70;0.95;;;;;;;24.79;50.09;100884.44;5049400;28;20742;-83
2023/08/26 01:31:12;;;;;;;2.87;0.90;;;;;;;24.72;50.45;100889.28;5049407;28;20483;-82
2023/08/26 01:34:12;;;;;;;3.08;0.70;;;;;;;24.69;50.47;100893.34;5028877;28;20429;-83
2023/08/26 01:36:42;;;;;;;2.95;0.75;;;;;;;24.76;50.33;100891.22;5017667;28;20458;-83
2023/08/26 01:39:13;;;;;;;3.75;0.80;;;;;;;24.84;50.05;100886.38;5061489;28;20444;-83
2023/08/26 01:41:44;;;;;;;3.35;0.90;;;;;;;24.84;49.94;100879.06;5060277;28;20377;-82
2023/08/26 01:44:11;;;;;;;2.50;0.88;;;;;;;24.77;50.18;100887.41;5060232;28;20376;-83
2023/08/26 01:46:37;;;;;;;2.53;0.80;;;;;;;24.67;50.81;100889.22;5065310;28;20472;-84
2023/08/26 01:49:04;;;;;;;2.72;0.73;;;;;;;24.55;50.94;100879.41;5063822;28;20376;-84
2023/08/26 01:51:31;;;;;;;2.55;0.80;;;;;;;24.46;51.40;100885.53;5062146;28;20420;-82
2023/08/26 01:53:56;;;;;;;3.00;0.90;;;;;;;24.32;51.82;100877.81;5061944;28;20405;-82
2023/08/26 01:56:21;;;;;;;2.47;0.70;;;;;;;24.31;51.79;100880.78;5044022;28;20404;-82
2023/08/26 01:58:47;;;;;;;3.30;0.97;;;;;;;24.29;51.67;100883.78;5062647;28;20388;-82
2023/08/26 02:01:12;;;;;;;2.80;0.90;;;;;;;24.32;52.03;100891.38;5061193;28;20381;-82
2023/08/26 02:03:38;;;;;;;3.03;0.70;;;;;;;24.31;51.90;100891.63;5065436;28;20387;-84
2023/08/26 02:06:04;;;;;;;3.20;0.87;;;;;;;24.35;51.37;100877.31;5043829;28;20749;-83
2023/08/26 02:08:29;;;;;;;3.35;1.10;;;;;;;24.39;51.41;100878.41;5058789;28;20469;-83
2023/08/26 02:10:56;;;;;;;2.53;0.60;;;;;;;24.43;51.34;100870.59;5058567;28;20555;-82
2023/08/26 02:13:22;;;;;;;3.25;0.80;;;;;;;24.50;51.04;100867.69;5058416;28;20377;-83
2023/08/26 02:15:48;;;;;;;2.63;0.63;;;;;;;24.48;51.06;100867.13;5058538;28;20412;-82
2023/08/26 02:18:13;;;;;;;2.33;0.63;;;;;;;24.43;51.29;100857.88;5058322;28;20381;-82
2023/08/26 02:20:43;;;;;;;3.30;0.90;;;;;;;24.36;51.55;100856.44;5040193;28;20377;-81
2023/08/26 02:23:11;;;;;;;3.00;0.80;;;;;;;24.45;51.59;100870.34;5058290;28;20806;-80
2023/08/26 02:25:40;;;;;;;2.80;0.80;;;;;;;24.50;51.43;100870.38;5058363;28;20711;-82
2023/08/26 02:28:05;;;;;;;2.92;0.88;;;;;;;24.57;50.91;100860.16;5057887;28;20377;-81
2023/08/26 02:30:31;;;;;;;2.60;0.70;;;;;;;24.59;50.96;100863.44;5057736;28;20609;-82
2023/08/26 02:32:56;;;;;;;3.22;0.85;;;;;;;24.46;51.57;100870.09;5058998;28;21100;-82
2023/08/26 02:35:22;;;;;;;2.60;1.00;;;;;;;24.33;51.89;100867.81;5052193;28;21073;-83
2023/08/26 02:37:47;;;;;;;1.97;0.60;;;;;;;24.34;51.67;100864.03;5060586;28;20380;-82
2023/08/26 02:40:13;;;;;;;3.57;1.17;;;;;;;24.41;51.59;100872.75;5042745;28;20706;-82
2023/08/26 02:42:38;;;;;;;3.28;0.82;;;;;;;24.48;51.36;100869.84;5060553;28;20381;-82
2023/08/26 02:45:04;;;;;;;3.27;0.80;;;;;;;24.47;51.23;100858.19;5060882;28;20441;-82
2023/08/26 02:47:30;;;;;;;3.08;0.70;;;;;;;24.48;50.90;100850.88;5074655;28;20740;-83
2023/08/26 02:49:56;;;;;;;3.00;0.70;;;;;;;24.55;50.96;100854.19;5039809;28;20877;-82
2023/08/26 02:52:22;;;;;;;3.42;0.82;;;;;;;24.56;50.78;100859.38;5057512;28;20392;-82
2023/08/26 02:54:47;;;;;;;2.70;0.63;;;;;;;24.68;50.52;100858.34;5057172;28;20380;-82
2023/08/26 02:57:12;;;;;;;2.80;1.00;;;;;;;24.59;50.63;100864.25;5056684;28;20381;-83
2023/08/26 02:59:38;;;;;;;3.97;0.90;;;;;;;24.57;50.58;100850.13;5055272;28;20377;-81
2023/08/26 03:02:04;;;;;;;1.80;0.50;;;;;;;24.68;50.21;100852.94;5036858;28;20412;-81
2023/08/26 03:04:35;;;;;;;1.63;0.50;;;;;;;24.74;50.05;100844.56;5051887;28;20468;-80
2023/08/26 03:07:01;;;;;;;2.67;0.60;;;;;;;24.77;49.77;100852.16;5051963;28;20738;-81
2023/08/26 03:09:28;;;;;;;3.20;0.70;;;;;;;24.83;49.65;100860.34;5034326;28;20890;-81
2023/08/26 03:11:58;;;;;;;2.53;0.68;;;;;;;24.78;49.87;100848.38;5034557;28;20372;-81
2023/08/26 03:14:23;;;;;;;2.33;0.60;;;;;;;24.68;50.20;100853.75;5051970;28;20813;-82
2023/08/26 03:16:49;;;;;;;2.20;0.80;;;;;;;24.67;50.15;100845.84;5034261;28;20376;-83
2023/08/26 03:19:14;;;;;;;2.40;0.50;;;;;;;24.74;49.91;100847.28;5052306;28;20384;-80
2023/08/26 03:21:40;;;;;;;2.75;0.60;;;;;;;24.80;49.60;100851.66;5051897;28;20376;-80
2023/08/26 03:24:05;;;;;;;2.27;0.60;;;;;;;24.89;49.47;100864.72;5051962;28;20384;-80
2023/08/26 03:26:31;;;;;;;2.50;0.70;;;;;;;24.88;49.43;100863.88;5052013;28;20377;-80
2023/08/26 03:28:56;;;;;;;2.55;0.70;;;;;;;24.84;49.57;100859.28;5052449;28;20387;-82
2023/08/26 03:31:22;;;;;;;2.43;0.60;;;;;;;24.82;49.51;100870.38;5033620;28;20413;-81
2023/08/26 03:33:47;;;;;;;3.10;0.80;;;;;;;24.82;49.57;100877.69;5034483;28;20399;-80
2023/08/26 03:36:13;;;;;;;3.17;0.80;;;;;;;24.54;50.59;100877.78;5051513;28;20383;-81
2023/08/26 03:38:38;;;;;;;2.63;0.70;;;;;;;24.49;50.91;100872.28;5051786;28;20520;-82
2023/08/26 03:41:05;;;;;;;2.67;0.80;;;;;;;24.59;50.42;100877.78;5051936;28;20377;-83
2023/08/26 03:43:31;;;;;;;2.05;0.52;;;;;;;24.74;49.99;100882.53;5067691;28;20471;-84
2023/08/26 03:45:57;;;;;;;2.60;0.90;;;;;;;24.78;49.83;100886.34;5052464;28;20385;-83
2023/08/26 03:48:22;;;;;;;1.67;0.40;;;;;;;24.78;49.74;100886.34;5052255;28;20380;-83
2023/08/26 03:50:52;;;;;;;2.70;0.60;;;;;;;24.70;49.84;100886.81;5034371;28;20773;-82
2023/08/26 03:53:19;;;;;;;2.67;0.60;;;;;;;24.66;49.97;100885.72;5052220;28;20403;-83
2023/08/26 03:55:47;;;;;;;2.25;0.60;;;;;;;24.66;49.98;100884.91;5052159;28;20412;-83
2023/08/26 03:58:14;;;;;;;2.13;0.50;;;;;;;24.64;49.98;100881.63;5052195;28;20385;-82
2023/08/26 04:00:39;;;;;;;2.40;0.57;;;;;;;24.58;50.31;100892.44;5052452;28;20392;-83
2023/08/26 04:03:05;;;;;;;2.80;0.70;;;;;;;24.61;50.14;100885.66;5035501;28;20442;-82
2023/08/26 04:05:31;;;;;;;1.77;0.50;;;;;;;24.57;50.22;100889.97;5053728;28;20404;-84
2023/08/26 04:07:57;;;;;;;1.85;0.50;;;;;;;24.39;50.99;100888.44;5037603;28;20376;-82
2023/08/26 04:10:23;;;;;;;3.85;1.05;;;;;;;24.27;51.45;100896.72;5051387;28;20465;-82
2023/08/26 04:12:48;;;;;;;2.95;0.80;;;;;;;24.37;51.18;100909.56;5051258;28;20439;-84
2023/08/26 04:15:14;;;;;;;2.75;0.85;;;;;;;24.51;50.96;100912.69;5052830;28;20457;-84
2023/08/26 04:17:43;;;;;;;1.23;0.38;;;;;;;24.62;50.57;100909.00;5054863;28;20858;-84
2023/08/26 04:20:09;;;;;;;2.70;1.20;;;;;;;24.43;51.28;100911.25;5054816;28;20448;-84
2023/08/26 04:22:34;;;;;;;2.15;0.55;;;;;;;24.33;51.42;100908.47;5052936;28;20404;-84
2023/08/26 04:25:00;;;;;;;1.93;0.67;;;;;;;24.41;51.17;100918.81;5068367;28;20699;-84
2023/08/26 04:27:27;;;;;;;1.57;0.40;;;;;;;24.43;51.27;100908.53;5051626;28;20384;-83
2023/08/26 04:29:53;;;;;;;3.63;0.83;;;;;;;24.60;50.98;100916.56;5051334;28;20405;-82
2023/08/26 04:32:18;;;;;;;1.90;0.60;;;;;;;24.53;50.80;100910.56;5033543;28;20511;-83
2023/08/26 04:34:46;;;;;;;2.07;0.60;;;;;;;24.40;51.25;100918.00;5050889;28;20380;-82
2023/08/26 04:37:12;;;;;;;2.90;0.73;;;;;;;24.27;51.82;100923.81;5051336;28;20857;-83
2023/08/26 04:39:38;;;;;;;1.98;0.55;;;;;;;24.28;52.04;100925.47;5051475;28;20384;-82
2023/08/26 04:42:04;;;;;;;1.52;0.43;;;;;;;24.45;51.47;100913.69;5052576;28;20376;-83
2023/08/26 04:44:29;;;;;;;2.72;0.70;;;;;;;24.53;51.23;100933.03;5056121;28;20438;-83
2023/08/26 04:46:55;;;;;;;1.83;0.57;;;;;;;24.54;51.21;100915.72;5055728;28;20396;-84
2023/08/26 04:49:21;;;;;;;1.77;0.50;;;;;;;24.49;51.43;100923.78;5055931;28;20384;-84
2023/08/26 04:51:53;;;;;;;2.17;0.70;;;;;;;24.37;51.79;100920.41;5055655;28;20465;-83
2023/08/26 04:54:19;;;;;;;1.80;0.50;;;;;;;24.44;51.76;100931.84;5054475;28;20404;-83
2023/08/26 04:56:44;;;;;;;2.10;0.63;;;;;;;24.35;52.07;100931.50;5047042;28;20450;-84
2023/08/26 04:59:11;;;;;;;3.95;0.95;;;;;;;24.36;52.17;100948.56;5048593;28;20398;-84
2023/08/26 05:01:36;;;;;;;1.48;0.50;;;;;;;24.46;51.80;100932.41;5030936;28;20396;-85
2023/08/26 05:04:02;;;;;;;2.63;0.87;;;;;;;24.65;51.66;100945.59;5039411;28;20390;-85
2023/08/26 05:06:27;;;;;;;1.80;0.50;;;;;;;24.69;51.67;100950.25;5052830;28;20496;-85
2023/08/26 05:08:53;;;;;;;2.80;0.77;;;;;;;24.51;52.26;100942.50;5054561;28;20388;-84
2023/08/26 05:11:18;;;;;;;3.40;0.98;;;;;;;24.65;51.95;100945.59;5052006;28;20840;-81
2023/08/26 05:13:44;;;;;;;2.47;0.80;;;;;;;24.71;51.91;100950.81;5033727;28;20450;-80
2023/08/26 05:16:09;;;;;;;1.87;0.70;;;;;;;24.68;51.89;100945.09;5036506;28;20419;-79
2023/08/26 05:18:34;;;;;;;2.70;0.90;;;;;;;24.86;51.59;100946.59;5054444;28;20808;-80
2023/08/26 05:21:00;;;;;;;2.00;0.50;;;;;;;25.18;50.80;100957.38;5054535;28;20381;-81
2023/08/26 05:23:26;;;;;;;1.70;0.50;;;;;;;25.29;50.50;100942.00;5055047;28;20795;-81
2023/08/26 05:25:51;;;;;;;1.42;0.55;;;;;;;25.46;50.32;100958.09;5055694;28;20389;-82
2023/08/26 05:28:17;;;;;;;2.03;0.70;;;;;;;25.30;50.66;100951.78;5056044;28;20385;-81
2023/08/26 05:30:42;;;;;;;2.70;0.80;;;;;;;25.14;50.82;100940.00;5037826;28;20407;-81
2023/08/26 05:33:08;;;;;;;2.97;0.80;;;;;;;25.37;50.44;100952.34;5054509;28;20384;-81
2023/08/26 05:35:34;;;;;;;2.70;0.80;;;;;;;25.60;50.07;100945.69;5055174;28;20372;-80
2023/08/26 05:37:59;;;;;;;2.27;0.80;;;;;;;25.54;50.06;100952.19;5054163;28;20377;-80
2023/08/26 05:40:29;;;;;;;1.77;0.50;;;;;;;25.67;49.95;100956.31;5036693;28;20373;-80
2023/08/26 05:42:58;;;;;;;1.93;0.87;;;;;;;25.74;49.90;100959.59;5037525;28;20404;-80
2023/08/26 05:45:24;;;;;;;3.08;0.90;;;;;;;25.89;49.46;100954.22;5054761;28;20385;-81
2023/08/26 05:47:51;;;;;;;2.53;0.75;;;;;;;25.86;49.63;100954.75;5036191;28;20447;-80
2023/08/26 05:50:16;;;;;;;3.72;1.05;;;;;;;25.86;49.84;100953.94;5053899;28;20394;-79
2023/08/26 05:52:42;;;;;;;2.87;0.80;;;;;;;25.82;49.88;100958.25;5053045;28;20376;-78
2023/08/26 05:55:09;;;;;;;2.47;0.70;;;;;;;26.12;49.23;100960.28;5054699;28;20437;-77
2023/08/26 05:57:35;;;;;;;1.67;0.45;;;;;;;26.23;49.05;100953.78;5055339;28;20842;-79
2023/08/26 06:00:01;;;;;;;1.10;0.50;;;;;;;26.38;48.66;100968.47;5055326;28;20372;-81
2023/08/26 06:02:26;;;;;;;1.05;0.40;;;;;;;26.65;48.35;100963.66;5035930;28;20388;-80
2023/08/26 06:04:53;;;;;;;2.72;0.70;;;;;;;26.71;48.25;100964.47;5037361;28;20401;-82
2023/08/26 06:07:19;;;;;;;0.80;0.30;;;;;;;26.60;48.09;100963.63;5058170;28;20377;-80
2023/08/26 06:09:44;;;;;;;0.65;0.30;;;;;;;26.69;48.18;100962.00;5060325;28;20434;-82
2023/08/26 06:12:10;;;;;;;1.33;0.50;;;;;;;26.95;47.78;100970.16;5057005;28;20480;-81
2023/08/26 06:14:35;;;;;;;2.80;0.80;;;;;;;27.08;47.48;100966.06;5054191;28;20388;-79
2023/08/26 06:17:01;;;;;;;1.47;0.50;;;;;;;27.15;47.45;100966.59;5063543;28;20535;-79
2023/08/26 06:19:26;;;;;;;2.03;0.55;;;;;;;27.38;47.09;100970.66;5043304;28;20482;-79
2023/08/26 06:21:52;;;;;;;1.15;0.43;;;;;;;27.55;46.58;100967.63;5061008;28;20427;-79
2023/08/26 06:24:17;;;;;;;3.17;0.90;;;;;;;27.56;46.76;100968.41;5021478;28;20474;-79
2023/08/26 06:26:44;;;;;;;1.47;0.63;;;;;;;27.64;46.46;100981.44;5039577;28;20388;-79
2023/08/26 06:29:13;;;;;;;1.52;0.60;;;;;;;27.71;46.32;100971.06;5023611;28;20566;-77
2023/08/26 06:31:38;;;;;;;0.88;0.40;;;;;;;27.67;46.54;100974.66;5039219;28;20402;-78
2023/08/26 06:34:04;;;;;;;0.93;0.40;;;;;;;27.84;46.01;100969.69;5040559;28;20381;-78
2023/08/26 06:36:29;;;;;;;1.92;0.60;;;;;;;27.92;46.06;100969.09;5028625;28;20386;-79
2023/08/26 06:38:55;;;;;;;1.70;0.70;;;;;;;28.10;45.94;100973.09;5030473;28;20393;-79
2023/08/26 06:41:21;;;;;;;1.30;0.40;;;;;;;28.25;45.49;100972.19;5029484;28;20374;-79
2023/08/26 06:43:46;;;;;;;2.50;0.67;;;;;;;28.21;45.31;100973.84;5016853;28;20384;-72
2023/08/26 06:46:12;;;;;;;3.00;0.67;;;;;;;28.31;45.29;100975.72;5029809;28;20395;-74
2023/08/26 06:48:37;;;;;;;2.13;0.60;;;;;;;28.54;45.16;100966.84;5028665;28;20424;-72
2023/08/26 06:51:02;;;;;;;2.20;0.55;;;;;;;28.86;44.77;100965.47;5029510;28;20410;-73
2023/08/26 06:53:28;;;;;;;3.45;0.70;;;;;;;29.07;44.54;100963.34;5036620;28;20385;-73
2023/08/26 06:55:53;;;;;;;3.53;1.10;;;;;;;29.19;44.43;100968.47;5040098;28;20374;-73
2023/08/26 06:58:20;;;;;;;3.00;0.70;;;;;;;29.40;44.16;100968.22;5038065;28;20366;-75
2023/08/26 07:00:47;;;;;;;2.47;0.57;;;;;;;29.47;44.05;100974.16;5035229;28;20382;-73
2023/08/26 07:03:12;;;;;;;2.40;0.55;;;;;;;29.51;44.18;100967.84;5029638;28;20516;-74
2023/08/26 07:05:41;;;;;;;5.07;1.13;;;;;;;29.67;44.08;100973.91;5029686;28;20898;-74
2023/08/26 07:08:07;;;;;;;3.30;0.80;;;;;;;29.75;43.91;100975.22;5028762;28;20743;-73
2023/08/26 07:10:32;;;;;;;1.88;0.50;;;;;;;29.80;43.27;100966.13;5030144;28;20444;-73
2023/08/26 07:12:58;;;;;;;2.40;0.55;;;;;;;29.93;43.34;100960.75;5027197;28;20397;-73
2023/08/26 07:15:23;;;;;;;4.47;1.07;;;;;;;30.06;43.15;100963.88;5031125;28;20379;-73
2023/08/26 07:17:49;;;;;;;3.50;1.00;;;;;;;30.08;42.99;100969.84;5028940;28;20375;-73
2023/08/26 07:20:14;;;;;;;2.70;0.83;;;;;;;30.13;43.10;100967.03;5029066;28;20758;-73
2023/08/26 07:22:40;;;;;;;1.90;0.60;;;;;;;30.26;42.98;100968.22;5030955;28;20370;-74
2023/08/26 07:25:06;;;;;;;2.05;0.50;;;;;;;30.37;42.90;100963.44;5030723;28;20755;-73
2023/08/26 07:27:31;;;;;;;2.40;0.50;;;;;;;30.50;42.71;100965.41;5030156;28;20465;-74
2023/08/26 07:29:57;;;;;;;3.57;0.90;;;;;;;30.38;42.59;100963.16;5030058;28;20394;-74
2023/08/26 07:32:22;;;;;;;3.77;0.80;;;;;;;30.24;42.65;100962.25;5030165;28;20384;-72
2023/08/26 07:34:51;;;;;;;2.50;0.80;;;;;;;30.13;42.49;100963.50;5029911;28;20381;-74
2023/08/26 07:37:16;;;;;;;2.28;0.70;;;;;;;30.20;42.65;100972.16;5030408;28;20465;-73
2023/08/26 07:39:41;;;;;;;1.93;0.60;;;;;;;30.35;42.46;100969.19;5030344;28;20374;-72
2023/08/26 07:42:07;;;;;;;1.97;0.57;;;;;;;30.48;42.42;100967.63;5030585;28;20370;-73
2023/08/26 07:44:32;;;;;;;4.13;0.93;;;;;;;30.47;41.38;100972.28;5030657;28;20413;-72
2023/08/26 07:46:58;;;;;;;2.77;0.70;;;;;;;30.23;41.58;100971.53;5030613;28;20456;-73
2023/08/26 07:49:23;;;;;;;2.57;0.70;;;;;;;30.45;41.45;100973.69;5030557;28;20456;-72
2023/08/26 07:51:49;;;;;;;3.63;0.73;;;;;;;30.63;41.42;100974.78;5030464;28;20602;-73
2023/08/26 07:54:14;;;;;;;2.00;0.50;;;;;;;30.79;41.19;100957.00;5030592;28;20379;-73
2023/08/26 07:56:40;;;;;;;4.68;0.90;;;;;;;30.98;41.16;100970.63;5030572;28;20859;-73
2023/08/26 07:59:05;;;;;;;3.30;0.77;;;;;;;31.04;41.09;100963.13;5030588;28;20667;-73
2023/08/26 08:01:31;;;;;;;2.33;0.52;;;;;;;31.29;40.67;100963.78;5030664;28;20799;-74
2023/08/26 08:03:56;;;;;;;3.10;0.70;;;;;;;31.45;40.33;100954.94;5029172;28;20440;-73
2023/08/26 08:06:21;;;;;;;5.03;1.10;;;;;;;31.59;40.22;100957.72;5029685;28;20413;-73
2023/08/26 08:08:47;;;;;;;3.40;0.80;;;;;;;31.79;40.11;100950.16;5028475;28;20394;-72
2023/08/26 08:11:12;;;;;;;2.73;0.60;;;;;;;31.94;40.37;100958.03;5018626;28;20407;-74
2023/08/26 08:13:38;;;;;;;2.43;0.50;;;;;;;32.02;40.05;100956.50;5028890;28;20374;-74
2023/08/26 08:16:03;;;;;;;3.67;0.83;;;;;;;32.12;39.79;100959.03;5028424;28;20416;-74
2023/08/26 08:18:29;;;;;;;4.03;0.83;;;;;;;32.30;39.56;100948.22;5033221;28;20385;-73
2023/08/26 08:20:54;;;;;;;3.93;0.73;;;;;;;32.33;39.87;100942.09;5019117;28;20469;-71
2023/08/26 08:23:20;;;;;;;2.73;0.70;;;;;;;32.41;39.16;100949.56;5028744;28;20805;-73
2023/08/26 08:25:46;;;;;;;4.00;0.90;;;;;;;32.50;38.71;100942.25;5017738;28;20398;-73
2023/08/26 08:28:11;;;;;;;2.83;0.60;;;;;;;32.47;38.93;100942.84;5015574;28;20893;-73
2023/08/26 08:30:37;;;;;;;1.90;0.50;;;;;;;32.57;38.89;100950.84;5018839;28;20768;-73
2023/08/26 08:33:02;;;;;;;1.83;0.50;;;;;;;32.68;39.00;100937.69;5016703;28;20869;-74
2023/08/26 08:35:28;;;;;;;2.95;0.60;;;;;;;32.82;38.69;100936.78;5013377;28;20499;-73
2023/08/26 08:37:53;;;;;;;2.40;0.65;;;;;;;32.98;38.50;100942.69;5011090;28;20387;-74
2023/08/26 08:40:19;;;;;;;3.05;0.70;;;;;;;33.02;38.18;100938.16;5010988;28;20404;-74
2023/08/26 08:42:47;;;;;;;2.53;0.60;;;;;;;33.09;38.27;100942.06;5011757;28;20368;-73
2023/08/26 08:45:13;;;;;;;1.95;0.65;;;;;;;33.20;37.84;100937.13;5013298;28;20391;-74
2023/08/26 08:47:39;;;;;;;2.17;0.67;;;;;;;33.19;37.55;100938.28;5013991;28;20470;-75
2023/08/26 08:50:05;;;;;;;3.47;0.80;;;;;;;33.31;37.53;100930.25;4996837;28;20408;-74
2023/08/26 08:52:32;;;;;;;3.28;0.77;;;;;;;33.26;37.17;100932.28;5014119;28;20404;-74
2023/08/26 08:54:58;;;;;;;3.13;0.70;;;;;;;33.46;37.26;100936.41;5014008;28;20489;-73
2023/08/26 08:57:32;;;;;;;3.57;0.77;;;;;;;33.48;37.46;100932.22;5013973;28;20376;-75
2023/08/26 08:59:58;;;;;;;3.75;0.82;;;;;;;33.44;37.38;100927.66;5014040;28;20459;-74
2023/08/26 09:02:27;;;;;;;3.53;0.75;;;;;;;33.51;37.26;100928.81;5013484;28;20455;-74
2023/08/26 09:04:53;;;;;;;3.95;0.90;;;;;;;33.63;37.08;100930.13;5013739;28;20412;-74
2023/08/26 09:07:20;;;;;;;3.90;1.00;;;;;;;33.75;36.71;100930.34;5013737;28;20391;-73
2023/08/26 09:09:46;;;;;;;1.33;0.50;;;;;;;33.86;36.40;100926.13;5013681;28;20384;-74
2023/08/26 09:12:11;;;;;;;3.30;1.30;;;;;;;33.85;36.47;100915.47;5014115;28;20372;-75
2023/08/26 09:14:37;;;;;;;3.40;0.80;;;;;;;33.93;36.30;100919.38;5013753;28;20391;-75
2023/08/26 09:17:19;;;;;;;2.20;0.60;;;;;;;34.03;36.43;100914.34;5013327;28;21061;-74
2023/08/26 09:19:58;;;;;;;2.00;0.50;;;;;;;34.12;36.16;100910.78;5013524;28;20415;-73
2023/08/26 09:22:28;;;;;;;1.88;0.55;;;;;;;34.19;35.45;100911.91;5005498;28;20527;-73
2023/08/26 09:25:01;;;;;;;3.83;0.93;;;;;;;34.21;35.52;100912.41;5013481;28;20404;-73
2023/08/26 09:27:27;;;;;;;3.53;0.80;;;;;;;34.22;35.67;100908.53;5013495;28;20380;-73
2023/08/26 09:29:54;;;;;;;3.97;0.83;;;;;;;34.28;35.71;100909.16;5012468;28;20403;-73
2023/08/26 09:32:36;;;;;;;4.47;1.00;;;;;;;34.31;35.59;100910.47;5013021;28;20395;-74
2023/08/26 09:35:13;;;;;;;11.15;0.90;;;;;;;34.32;35.27;100904.59;5013227;28;20872;-75
2023/08/26 09:37:41;;;;;;;4.15;0.95;;;;;;;34.39;35.44;100902.16;5013100;28;20760;-74
2023/08/26 09:40:11;;;;;;;1.70;0.47;;;;;;;34.55;34.92;100907.16;5013385;28;20455;-74
2023/08/26 09:42:37;;;;;;;3.33;0.70;;;;;;;34.65;34.59;100899.34;5013014;28;20407;-74
2023/08/26 09:45:07;;;;;;;3.37;0.70;;;;;;;34.72;34.22;100903.56;5012966;28;20864;-74
2023/08/26 09:47:37;;;;;;;2.25;0.80;;;;;;;34.74;33.51;100901.31;5012812;28;20458;-74
2023/08/26 09:50:04;;;;;;;2.88;0.75;;;;;;;34.78;33.39;100896.75;5012806;28;20396;-73
2023/08/26 09:52:29;;;;;;;3.40;0.75;;;;;;;34.79;33.15;100895.59;5012962;28;20903;-74
2023/08/26 09:54:56;;;;;;;3.00;0.70;;;;;;;34.78;32.91;100886.53;5012699;28;20420;-75
2023/08/26 09:57:22;;;;;;;4.18;0.98;;;;;;;34.82;32.58;100893.00;5012573;28;20391;-73
2023/08/26 09:59:47;;;;;;;3.80;0.90;;;;;;;34.87;32.17;100891.22;5012452;28;20475;-74
2023/08/26 10:02:23;;;;;;;3.50;0.70;;;;;;;34.95;32.43;100893.09;5012866;28;20546;-74
2023/08/26 10:04:55;;;;;;;3.25;0.68;;;;;;;34.97;32.58;100888.06;5012885;28;20490;-75
2023/08/26 10:07:23;;;;;;;2.72;0.70;;;;;;;35.10;32.38;100891.75;5012695;28;20377;-74
2023/08/26 10:10:06;;;;;;;3.28;0.77;;;;;;;35.21;32.33;100882.78;5012615;28;20372;-73
2023/08/26 10:12:38;;;;;;;1.50;0.50;;;;;;;35.22;32.54;100881.66;5012879;28;20380;-75
2023/08/26 10:15:07;;;;;;;3.42;0.70;;;;;;;35.24;32.98;100884.09;5012422;28;20384;-74
2023/08/26 10:17:34;;;;;;;3.47;0.80;;;;;;;35.30;33.31;100870.91;5012712;28;20390;-74
2023/08/26 10:20:00;;;;;;;0.95;0.32;;;;;;;35.53;32.90;100866.69;5012627;28;20391;-75
2023/08/26 10:22:26;;;;;;;1.90;0.57;;;;;;;35.57;32.46;100870.38;5012409;28;20445;-74
2023/08/26 10:24:52;;;;;;;3.13;0.70;;;;;;;35.65;32.43;100865.94;5012269;28;20388;-74
2023/08/26 10:27:18;;;;;;;2.27;0.50;;;;;;;35.65;32.54;100865.16;5012127;28;20475;-74
2023/08/26 10:29:45;;;;;;;2.73;0.60;;;;;;;35.65;32.63;100851.34;5011660;28;20435;-74
2023/08/26 10:32:17;;;;;;;2.30;0.70;;;;;;;35.81;32.55;100848.81;5012353;28;20391;-73
2023/08/26 10:34:54;;;;;;;2.92;0.68;;;;;;;36.04;32.52;100852.00;5011999;28;20375;-76
2023/08/26 10:37:32;;;;;;;2.13;0.50;;;;;;;35.96;31.75;100840.72;4994935;28;20457;-75
2023/08/26 10:40:14;;;;;;;2.10;0.52;;;;;;;35.98;31.64;100837.63;4994534;28;20380;-74
2023/08/26 10:43:11;;;;;;;2.17;0.57;;;;;;;35.83;31.89;100847.31;4995741;28;20450;-74
2023/08/26 10:45:47;;;;;;;3.33;0.70;;;;;;;35.84;31.32;100831.59;5011895;28;20419;-74
2023/08/26 10:48:13;;;;;;;1.88;0.50;;;;;;;35.95;31.32;100839.09;5011849;28;20384;-74
2023/08/26 10:50:41;;;;;;;3.03;0.73;;;;;;;36.00;31.22;100832.56;5011478;28;20482;-73
2023/08/26 10:53:21;;;;;;;3.28;0.77;;;;;;;36.09;31.29;100830.53;5011737;28;20395;-74
2023/08/26 10:55:51;;;;;;;1.17;0.50;;;;;;;36.21;31.38;100835.28;5011999;28;20384;-74
2023/08/26 10:58:21;;;;;;;2.88;0.73;;;;;;;36.29;31.00;100830.84;5011368;28;20383;-73
2023/08/26 11:00:51;;;;;;;4.40;1.00;;;;;;;36.29;30.76;100826.13;5011534;28;20768;-74
2023/08/26 11:03:19;;;;;;;4.63;1.45;;;;;;;36.16;30.14;100830.78;5015812;28;20416;-74
2023/08/26 11:05:46;;;;;;;2.58;0.90;;;;;;;35.84;28.67;100826.88;5012608;28;20496;-74
2023/08/26 11:08:13;;;;;;;3.03;0.70;;;;;;;35.74;28.93;100828.09;5030695;28;20851;-74
2023/08/26 11:10:40;;;;;;;2.77;0.63;;;;;;;35.87;29.11;100820.69;5030409;28;20419;-75
2023/08/26 11:13:10;;;;;;;3.55;0.77;;;;;;;35.72;28.58;100824.88;5030977;28;20394;-74
2023/08/26 11:15:38;;;;;;;3.87;0.80;;;;;;;35.88;29.18;100811.25;5030367;28;20379;-74
2023/08/26 11:18:09;;;;;;;3.83;1.08;;;;;;;36.03;28.41;100809.00;5030400;28;20926;-73
2023/08/26 11:20:35;;;;;;;3.80;0.90;;;;;;;36.04;28.46;100816.16;5030710;28;20378;-73
2023/08/26 11:23:05;;;;;;;3.75;0.77;;;;;;;36.00;28.45;100810.50;5017577;28;20544;-74